sensor_id;sensor_type;location;lat;lon;timestamp;pressure;altitude;pressure_sealevel;temperature;humidity
47809;BME280;33573;38.790;-77.084;2022-07-06T00:01:35;100874.72;;;27.85;37.98
47809;BME280;33573;38.790;-77.084;2022-07-06T00:04:03;100868.50;;;28.22;37.85
47809;BME280;33573;38.790;-77.084;2022-07-06T00:06:31;100864.16;;;28.19;37.79
47809;BME280;33573;38.790;-77.084;2022-07-06T00:08:59;100859.94;;;27.84;37.87
47809;BME280;33573;38.790;-77.084;2022-07-06T00:11:27;100854.21;;;28.25;37.73
47809;BME280;33573;38.790;-77.084;2022-07-06T00:13:55;100850.72;;;28.21;37.77
47809;BME280;33573;38.790;-77.084;2022-07-06T00:16:23;100844.93;;;28.03;37.69
47809;BME280;33573;38.790;-77.084;2022-07-06T00:18:51;100846.64;;;28.04;37.68
47809;BME280;33573;38.790;-77.084;2022-07-06T00:21:19;100847.33;;;28.46;37.49
47809;BME280;33573;38.790;-77.084;2022-07-06T00:23:47;100850.09;;;28.43;37.53
47809;BME280;33573;38.790;-77.084;2022-07-06T00:26:15;100853.89;;;28.42;37.11
47809;BME280;33573;38.790;-77.084;2022-07-06T00:28:43;100858.66;;;28.31;36.73
47809;BME280;33573;38.790;-77.084;2022-07-06T00:31:11;100852.29;;;28.11;37.09
47809;BME280;33573;38.790;-77.084;2022-07-06T00:33:39;100849.12;;;28.15;37.12
47809;BME280;33573;38.790;-77.084;2022-07-06T00:36:07;100852.11;;;28.07;37.24
47809;BME280;33573;38.790;-77.084;2022-07-06T00:38:35;100853.38;;;27.85;37.06
47809;BME280;33573;38.790;-77.084;2022-07-06T00:41:03;100855.85;;;28.14;37.18
47809;BME280;33573;38.790;-77.084;2022-07-06T00:43:50;100857.18;;;28.10;37.27
47809;BME280;33573;38.790;-77.084;2022-07-06T00:46:18;100864.04;;;27.78;37.36
47809;BME280;33573;38.790;-77.084;2022-07-06T00:48:46;100859.24;;;28.14;37.27
47809;BME280;33573;38.790;-77.084;2022-07-06T00:51:15;100855.47;;;27.93;37.26
47809;BME280;33573;38.790;-77.084;2022-07-06T00:53:43;100855.60;;;28.24;37.10
47809;BME280;33573;38.790;-77.084;2022-07-06T00:56:12;100862.76;;;28.21;36.77
47809;BME280;33573;38.790;-77.084;2022-07-06T00:58:40;100870.90;;;27.94;36.19
47809;BME280;33573;38.790;-77.084;2022-07-06T01:01:08;100870.86;;;28.31;36.52
47809;BME280;33573;38.790;-77.084;2022-07-06T01:03:36;100873.02;;;28.22;36.80
47809;BME280;33573;38.790;-77.084;2022-07-06T01:06:04;100876.53;;;27.94;36.91
47809;BME280;33573;38.790;-77.084;2022-07-06T01:08:32;100877.64;;;28.04;36.94
47809;BME280;33573;38.790;-77.084;2022-07-06T01:11:00;100878.25;;;28.14;36.82
47809;BME280;33573;38.790;-77.084;2022-07-06T01:13:30;100882.58;;;27.80;36.97
47809;BME280;33573;38.790;-77.084;2022-07-06T01:15:58;100882.91;;;28.02;37.04
47809;BME280;33573;38.790;-77.084;2022-07-06T01:18:26;100885.06;;;28.02;37.08
47809;BME280;33573;38.790;-77.084;2022-07-06T01:21:06;100883.07;;;28.05;37.09
47809;BME280;33573;38.790;-77.084;2022-07-06T01:23:39;100878.57;;;28.15;36.88
47809;BME280;33573;38.790;-77.084;2022-07-06T01:26:10;100877.58;;;28.24;36.37
47809;BME280;33573;38.790;-77.084;2022-07-06T01:28:38;100886.56;;;28.06;36.03
47809;BME280;33573;38.790;-77.084;2022-07-06T01:31:10;100888.08;;;28.08;35.86
47809;BME280;33573;38.790;-77.084;2022-07-06T01:33:40;100882.94;;;28.05;36.26
47809;BME280;33573;38.790;-77.084;2022-07-06T01:36:09;100884.99;;;28.26;36.31
47809;BME280;33573;38.790;-77.084;2022-07-06T01:38:44;100886.37;;;27.82;36.35
47809;BME280;33573;38.790;-77.084;2022-07-06T01:41:12;100880.84;;;28.10;36.33
47809;BME280;33573;38.790;-77.084;2022-07-06T01:43:41;100878.35;;;28.09;36.44
47809;BME280;33573;38.790;-77.084;2022-07-06T01:46:08;100878.68;;;28.09;36.45
47809;BME280;33573;38.790;-77.084;2022-07-06T01:48:36;100878.86;;;28.06;36.51
47809;BME280;33573;38.790;-77.084;2022-07-06T01:51:05;100877.66;;;28.04;36.55
47809;BME280;33573;38.790;-77.084;2022-07-06T01:53:32;100876.22;;;28.12;36.48
47809;BME280;33573;38.790;-77.084;2022-07-06T01:56:00;100882.65;;;28.08;36.55
47809;BME280;33573;38.790;-77.084;2022-07-06T01:58:28;100880.99;;;28.14;36.48
47809;BME280;33573;38.790;-77.084;2022-07-06T02:00:57;100887.76;;;28.55;35.85
47809;BME280;33573;38.790;-77.084;2022-07-06T02:03:24;100885.71;;;28.48;35.35
47809;BME280;33573;38.790;-77.084;2022-07-06T02:05:52;100885.77;;;28.33;35.63
47809;BME280;33573;38.790;-77.084;2022-07-06T02:08:20;100885.90;;;28.12;35.98
47809;BME280;33573;38.790;-77.084;2022-07-06T02:10:48;100888.40;;;27.28;36.68
47809;BME280;33573;38.790;-77.084;2022-07-06T02:13:16;100887.33;;;27.51;36.76
47809;BME280;33573;38.790;-77.084;2022-07-06T02:15:44;100887.76;;;28.06;35.94
47809;BME280;33573;38.790;-77.084;2022-07-06T02:18:12;100886.84;;;27.84;35.38
47809;BME280;33573;38.790;-77.084;2022-07-06T02:20:40;100886.15;;;27.71;34.88
47809;BME280;33573;38.790;-77.084;2022-07-06T02:23:08;100886.28;;;27.20;34.71
47809;BME280;33573;38.790;-77.084;2022-07-06T02:25:36;100885.23;;;27.25;34.32
47809;BME280;33573;38.790;-77.084;2022-07-06T02:28:04;100881.68;;;27.37;33.81
47809;BME280;33573;38.790;-77.084;2022-07-06T02:30:32;100876.27;;;27.27;33.49
47809;BME280;33573;38.790;-77.084;2022-07-06T02:33:00;100875.40;;;27.32;33.40
47809;BME280;33573;38.790;-77.084;2022-07-06T02:35:28;100874.03;;;26.87;33.74
47809;BME280;33573;38.790;-77.084;2022-07-06T02:37:56;100872.18;;;26.69;33.91
47809;BME280;33573;38.790;-77.084;2022-07-06T02:40:24;100866.10;;;26.95;33.87
47809;BME280;33573;38.790;-77.084;2022-07-06T02:42:52;100862.40;;;26.89;33.92
47809;BME280;33573;38.790;-77.084;2022-07-06T02:45:20;100862.27;;;27.33;33.52
47809;BME280;33573;38.790;-77.084;2022-07-06T02:47:48;100859.87;;;27.04;33.29
47809;BME280;33573;38.790;-77.084;2022-07-06T02:50:16;100861.86;;;26.83;32.91
47809;BME280;33573;38.790;-77.084;2022-07-06T02:52:44;100864.03;;;26.91;33.00
47809;BME280;33573;38.790;-77.084;2022-07-06T02:55:12;100862.69;;;26.69;32.69
47809;BME280;33573;38.790;-77.084;2022-07-06T02:57:40;100858.04;;;26.71;32.96
47809;BME280;33573;38.790;-77.084;2022-07-06T03:00:09;100856.98;;;26.62;33.08
47809;BME280;33573;38.790;-77.084;2022-07-06T03:02:36;100854.68;;;26.64;33.33
47809;BME280;33573;38.790;-77.084;2022-07-06T03:05:05;100852.46;;;26.82;33.24
47809;BME280;33573;38.790;-77.084;2022-07-06T03:07:33;100852.25;;;26.78;32.92
47809;BME280;33573;38.790;-77.084;2022-07-06T03:10:01;100850.59;;;26.73;32.65
47809;BME280;33573;38.790;-77.084;2022-07-06T03:12:29;100851.47;;;26.75;32.53
47809;BME280;33573;38.790;-77.084;2022-07-06T03:14:57;100847.68;;;26.52;32.47
47809;BME280;33573;38.790;-77.084;2022-07-06T03:17:25;100848.08;;;26.53;32.61
47809;BME280;33573;38.790;-77.084;2022-07-06T03:19:53;100847.31;;;26.68;32.71
47809;BME280;33573;38.790;-77.084;2022-07-06T03:22:21;100851.80;;;26.90;32.85
47809;BME280;33573;38.790;-77.084;2022-07-06T03:24:49;100856.89;;;26.54;33.00
47809;BME280;33573;38.790;-77.084;2022-07-06T03:27:17;100857.38;;;26.76;32.63
47809;BME280;33573;38.790;-77.084;2022-07-06T03:29:45;100857.14;;;27.01;32.58
47809;BME280;33573;38.790;-77.084;2022-07-06T03:32:13;100855.87;;;26.73;32.31
47809;BME280;33573;38.790;-77.084;2022-07-06T03:34:41;100849.66;;;26.74;32.23
47809;BME280;33573;38.790;-77.084;2022-07-06T03:37:09;100845.41;;;26.29;32.50
47809;BME280;33573;38.790;-77.084;2022-07-06T03:39:37;100841.82;;;26.17;32.64
47809;BME280;33573;38.790;-77.084;2022-07-06T03:42:06;100841.14;;;26.78;32.79
47809;BME280;33573;38.790;-77.084;2022-07-06T03:44:33;100844.04;;;26.45;32.80
47809;BME280;33573;38.790;-77.084;2022-07-06T03:47:01;100844.98;;;26.66;32.58
47809;BME280;33573;38.790;-77.084;2022-07-06T03:49:29;100852.96;;;27.08;32.43
47809;BME280;33573;38.790;-77.084;2022-07-06T03:51:57;100854.57;;;26.79;32.27
47809;BME280;33573;38.790;-77.084;2022-07-06T03:54:25;100853.00;;;26.68;32.04
47809;BME280;33573;38.790;-77.084;2022-07-06T03:56:53;100849.01;;;26.08;32.20
47809;BME280;33573;38.790;-77.084;2022-07-06T03:59:21;100846.48;;;26.59;32.42
47809;BME280;33573;38.790;-77.084;2022-07-06T04:01:49;100842.14;;;26.37;32.60
47809;BME280;33573;38.790;-77.084;2022-07-06T04:04:18;100845.28;;;26.35;32.57
47809;BME280;33573;38.790;-77.084;2022-07-06T04:06:45;100847.92;;;26.65;32.59
47809;BME280;33573;38.790;-77.084;2022-07-06T04:09:13;100854.69;;;26.95;32.32
47809;BME280;33573;38.790;-77.084;2022-07-06T04:11:41;100858.36;;;26.52;32.15
47809;BME280;33573;38.790;-77.084;2022-07-06T04:14:09;100861.54;;;26.67;32.02
47809;BME280;33573;38.790;-77.084;2022-07-06T04:16:37;100867.75;;;26.54;32.12
47809;BME280;33573;38.790;-77.084;2022-07-06T04:19:05;100866.01;;;26.57;32.25
47809;BME280;33573;38.790;-77.084;2022-07-06T04:21:33;100868.98;;;26.38;32.39
47809;BME280;33573;38.790;-77.084;2022-07-06T04:24:01;100872.29;;;26.50;32.49
47809;BME280;33573;38.790;-77.084;2022-07-06T04:26:30;100877.69;;;26.57;32.55
47809;BME280;33573;38.790;-77.084;2022-07-06T04:28:57;100882.39;;;26.58;32.62
47809;BME280;33573;38.790;-77.084;2022-07-06T04:31:25;100887.64;;;26.75;32.60
47809;BME280;33573;38.790;-77.084;2022-07-06T04:33:53;100887.33;;;26.67;32.47
47809;BME280;33573;38.790;-77.084;2022-07-06T04:36:21;100881.39;;;26.61;32.17
47809;BME280;33573;38.790;-77.084;2022-07-06T04:38:49;100883.78;;;26.47;32.20
47809;BME280;33573;38.790;-77.084;2022-07-06T04:41:17;100884.57;;;26.46;32.38
47809;BME280;33573;38.790;-77.084;2022-07-06T04:43:45;100881.86;;;26.28;32.49
47809;BME280;33573;38.790;-77.084;2022-07-06T04:46:13;100875.77;;;26.13;32.54
47809;BME280;33573;38.790;-77.084;2022-07-06T04:48:41;100870.71;;;26.50;32.57
47809;BME280;33573;38.790;-77.084;2022-07-06T04:51:09;100866.27;;;26.24;32.67
47809;BME280;33573;38.790;-77.084;2022-07-06T04:53:37;100868.72;;;26.35;32.72
47809;BME280;33573;38.790;-77.084;2022-07-06T04:56:05;100872.67;;;26.33;32.79
47809;BME280;33573;38.790;-77.084;2022-07-06T04:58:33;100879.47;;;26.35;32.85
47809;BME280;33573;38.790;-77.084;2022-07-06T05:01:01;100888.70;;;26.56;32.78
47809;BME280;33573;38.790;-77.084;2022-07-06T05:03:30;100892.77;;;26.51;32.52
47809;BME280;33573;38.790;-77.084;2022-07-06T05:05:57;100887.54;;;26.75;32.31
47809;BME280;33573;38.790;-77.084;2022-07-06T05:08:25;100884.28;;;26.59;32.45
47809;BME280;33573;38.790;-77.084;2022-07-06T05:10:53;100886.50;;;26.16;32.57
47809;BME280;33573;38.790;-77.084;2022-07-06T05:13:21;100888.10;;;26.14;32.70
47809;BME280;33573;38.790;-77.084;2022-07-06T05:15:49;100894.74;;;26.32;32.66
47809;BME280;33573;38.790;-77.084;2022-07-06T05:18:18;100893.70;;;26.25;32.79
47809;BME280;33573;38.790;-77.084;2022-07-06T05:20:45;100900.60;;;26.53;32.90
47809;BME280;33573;38.790;-77.084;2022-07-06T05:23:14;100897.52;;;26.56;32.94
47809;BME280;33573;38.790;-77.084;2022-07-06T05:25:41;100901.62;;;26.42;32.86
47809;BME280;33573;38.790;-77.084;2022-07-06T05:28:09;100901.23;;;26.38;32.95
47809;BME280;33573;38.790;-77.084;2022-07-06T05:30:38;100899.24;;;26.40;33.00
47809;BME280;33573;38.790;-77.084;2022-07-06T05:33:06;100898.78;;;26.98;32.93
47809;BME280;33573;38.790;-77.084;2022-07-06T05:35:33;100890.27;;;26.40;33.11
47809;BME280;33573;38.790;-77.084;2022-07-06T05:38:01;100889.68;;;26.44;33.12
47809;BME280;33573;38.790;-77.084;2022-07-06T05:40:30;100888.39;;;26.41;33.18
47809;BME280;33573;38.790;-77.084;2022-07-06T05:42:57;100889.13;;;26.48;33.17
47809;BME280;33573;38.790;-77.084;2022-07-06T05:45:26;100895.44;;;26.42;33.32
47809;BME280;33573;38.790;-77.084;2022-07-06T05:47:54;100901.03;;;26.53;33.29
47809;BME280;33573;38.790;-77.084;2022-07-06T05:50:22;100903.42;;;26.74;33.39
47809;BME280;33573;38.790;-77.084;2022-07-06T05:52:57;100897.88;;;26.39;33.50
47809;BME280;33573;38.790;-77.084;2022-07-06T05:55:25;100895.21;;;26.81;33.44
47809;BME280;33573;38.790;-77.084;2022-07-06T05:57:52;100897.58;;;26.77;33.50
47809;BME280;33573;38.790;-77.084;2022-07-06T06:00:21;100897.73;;;26.90;33.11
47809;BME280;33573;38.790;-77.084;2022-07-06T06:02:49;100890.02;;;26.39;32.86
47809;BME280;33573;38.790;-77.084;2022-07-06T06:05:17;100890.40;;;26.21;33.02
47809;BME280;33573;38.790;-77.084;2022-07-06T06:07:46;100897.25;;;26.23;33.09
47809;BME280;33573;38.790;-77.084;2022-07-06T06:10:14;100903.24;;;26.49;33.17
47809;BME280;33573;38.790;-77.084;2022-07-06T06:12:43;100899.40;;;26.52;33.23
47809;BME280;33573;38.790;-77.084;2022-07-06T06:15:11;100898.86;;;26.57;33.25
47809;BME280;33573;38.790;-77.084;2022-07-06T06:17:39;100896.74;;;26.29;33.29
47809;BME280;33573;38.790;-77.084;2022-07-06T06:20:09;100901.96;;;26.35;33.27
47809;BME280;33573;38.790;-77.084;2022-07-06T06:22:45;100906.81;;;26.35;33.34
47809;BME280;33573;38.790;-77.084;2022-07-06T06:25:14;100900.82;;;26.38;33.39
47809;BME280;33573;38.790;-77.084;2022-07-06T06:27:42;100904.21;;;26.66;33.47
47809;BME280;33573;38.790;-77.084;2022-07-06T06:30:11;100891.37;;;26.37;33.49
47809;BME280;33573;38.790;-77.084;2022-07-06T06:32:39;100883.37;;;26.38;33.57
47809;BME280;33573;38.790;-77.084;2022-07-06T06:35:07;100885.03;;;26.71;33.59
47809;BME280;33573;38.790;-77.084;2022-07-06T06:37:35;100888.77;;;26.38;33.68
47809;BME280;33573;38.790;-77.084;2022-07-06T06:40:05;100885.54;;;26.41;33.73
47809;BME280;33573;38.790;-77.084;2022-07-06T06:42:36;100878.51;;;26.48;33.70
47809;BME280;33573;38.790;-77.084;2022-07-06T06:45:05;100879.50;;;26.35;33.86
47809;BME280;33573;38.790;-77.084;2022-07-06T06:47:32;100882.65;;;26.37;33.88
47809;BME280;33573;38.790;-77.084;2022-07-06T06:50:00;100894.27;;;26.36;33.93
47809;BME280;33573;38.790;-77.084;2022-07-06T06:52:28;100904.55;;;26.43;33.91
47809;BME280;33573;38.790;-77.084;2022-07-06T06:54:56;100913.29;;;26.47;33.93
47809;BME280;33573;38.790;-77.084;2022-07-06T06:57:24;100905.40;;;26.44;33.94
47809;BME280;33573;38.790;-77.084;2022-07-06T06:59:52;100909.40;;;26.38;34.05
47809;BME280;33573;38.790;-77.084;2022-07-06T07:02:21;100909.58;;;26.47;34.01
47809;BME280;33573;38.790;-77.084;2022-07-06T07:04:49;100912.79;;;26.56;33.95
47809;BME280;33573;38.790;-77.084;2022-07-06T07:07:16;100910.97;;;26.78;34.02
47809;BME280;33573;38.790;-77.084;2022-07-06T07:09:44;100900.47;;;26.24;34.09
47809;BME280;33573;38.790;-77.084;2022-07-06T07:12:12;100907.96;;;26.27;34.33
47809;BME280;33573;38.790;-77.084;2022-07-06T07:14:40;100911.08;;;26.41;34.27
47809;BME280;33573;38.790;-77.084;2022-07-06T07:17:08;100912.74;;;26.43;34.28
47809;BME280;33573;38.790;-77.084;2022-07-06T07:19:36;100922.71;;;26.46;34.30
47809;BME280;33573;38.790;-77.084;2022-07-06T07:22:05;100922.01;;;26.74;34.32
47809;BME280;33573;38.790;-77.084;2022-07-06T07:24:32;100927.94;;;26.48;34.32
47809;BME280;33573;38.790;-77.084;2022-07-06T07:27:01;100923.65;;;26.76;34.35
47809;BME280;33573;38.790;-77.084;2022-07-06T07:29:28;100913.86;;;26.48;34.41
47809;BME280;33573;38.790;-77.084;2022-07-06T07:31:57;100923.92;;;26.85;34.33
47809;BME280;33573;38.790;-77.084;2022-07-06T07:34:24;100919.49;;;26.57;34.36
47809;BME280;33573;38.790;-77.084;2022-07-06T07:36:52;100918.99;;;26.53;34.43
47809;BME280;33573;38.790;-77.084;2022-07-06T07:39:20;100932.12;;;26.49;34.49
47809;BME280;33573;38.790;-77.084;2022-07-06T07:41:48;100932.79;;;26.50;34.54
47809;BME280;33573;38.790;-77.084;2022-07-06T07:44:16;100926.78;;;26.51;34.56
47809;BME280;33573;38.790;-77.084;2022-07-06T07:46:44;100926.84;;;26.28;34.59
47809;BME280;33573;38.790;-77.084;2022-07-06T07:49:12;100927.49;;;26.47;34.64
47809;BME280;33573;38.790;-77.084;2022-07-06T07:51:40;100920.35;;;26.46;34.66
47809;BME280;33573;38.790;-77.084;2022-07-06T07:54:08;100915.38;;;26.46;34.70
47809;BME280;33573;38.790;-77.084;2022-07-06T07:56:36;100915.37;;;26.44;34.77
47809;BME280;33573;38.790;-77.084;2022-07-06T07:59:04;100921.43;;;26.23;34.79
47809;BME280;33573;38.790;-77.084;2022-07-06T08:01:32;100923.44;;;26.45;34.80
47809;BME280;33573;38.790;-77.084;2022-07-06T08:04:00;100918.42;;;26.41;34.89
47809;BME280;33573;38.790;-77.084;2022-07-06T08:06:28;100908.23;;;26.56;34.78
47809;BME280;33573;38.790;-77.084;2022-07-06T08:08:56;100904.54;;;26.52;34.80
47809;BME280;33573;38.790;-77.084;2022-07-06T08:11:24;100899.64;;;26.66;34.95
47809;BME280;33573;38.790;-77.084;2022-07-06T08:13:52;100892.60;;;26.49;34.83
47809;BME280;33573;38.790;-77.084;2022-07-06T08:16:20;100884.68;;;26.51;34.91
47809;BME280;33573;38.790;-77.084;2022-07-06T08:18:48;100879.05;;;26.49;34.95
47809;BME280;33573;38.790;-77.084;2022-07-06T08:21:16;100876.08;;;26.47;34.97
47809;BME280;33573;38.790;-77.084;2022-07-06T08:23:44;100875.93;;;27.01;34.92
47809;BME280;33573;38.790;-77.084;2022-07-06T08:26:12;100878.92;;;26.21;35.04
47809;BME280;33573;38.790;-77.084;2022-07-06T08:28:40;100888.22;;;26.37;35.14
47809;BME280;33573;38.790;-77.084;2022-07-06T08:31:08;100891.31;;;26.48;35.08
47809;BME280;33573;38.790;-77.084;2022-07-06T08:33:36;100888.43;;;26.73;35.10
47809;BME280;33573;38.790;-77.084;2022-07-06T08:36:05;100887.03;;;26.49;35.07
47809;BME280;33573;38.790;-77.084;2022-07-06T08:38:32;100890.80;;;26.45;35.13
47809;BME280;33573;38.790;-77.084;2022-07-06T08:41:00;100886.54;;;26.28;35.12
47809;BME280;33573;38.790;-77.084;2022-07-06T08:43:29;100884.87;;;26.75;35.15
47809;BME280;33573;38.790;-77.084;2022-07-06T08:45:58;100896.12;;;26.46;35.21
47809;BME280;33573;38.790;-77.084;2022-07-06T08:48:27;100899.68;;;26.49;35.20
47809;BME280;33573;38.790;-77.084;2022-07-06T08:50:59;100897.41;;;26.48;35.21
47809;BME280;33573;38.790;-77.084;2022-07-06T08:53:28;100899.98;;;26.36;35.36
47809;BME280;33573;38.790;-77.084;2022-07-06T08:55:55;100908.09;;;26.45;35.32
47809;BME280;33573;38.790;-77.084;2022-07-06T08:58:24;100906.81;;;26.42;35.35
47809;BME280;33573;38.790;-77.084;2022-07-06T09:00:53;100905.83;;;26.44;35.34
47809;BME280;33573;38.790;-77.084;2022-07-06T09:03:21;100906.43;;;26.47;35.34
47809;BME280;33573;38.790;-77.084;2022-07-06T09:05:50;100905.49;;;26.36;35.45
47809;BME280;33573;38.790;-77.084;2022-07-06T09:08:19;100906.85;;;26.40;35.48
47809;BME280;33573;38.790;-77.084;2022-07-06T09:10:48;100908.59;;;26.67;35.43
47809;BME280;33573;38.790;-77.084;2022-07-06T09:13:16;100911.54;;;26.38;35.48
47809;BME280;33573;38.790;-77.084;2022-07-06T09:15:44;100914.44;;;26.37;35.50
47809;BME280;33573;38.790;-77.084;2022-07-06T09:18:12;100918.27;;;26.48;35.42
47809;BME280;33573;38.790;-77.084;2022-07-06T09:20:41;100919.97;;;26.27;35.59
47809;BME280;33573;38.790;-77.084;2022-07-06T09:23:09;100918.04;;;26.31;35.60
47809;BME280;33573;38.790;-77.084;2022-07-06T09:25:37;100920.30;;;26.63;35.54
47809;BME280;33573;38.790;-77.084;2022-07-06T09:28:05;100923.97;;;26.41;35.54
47809;BME280;33573;38.790;-77.084;2022-07-06T09:30:34;100923.53;;;26.40;35.55
47809;BME280;33573;38.790;-77.084;2022-07-06T09:33:02;100923.30;;;26.64;35.58
47809;BME280;33573;38.790;-77.084;2022-07-06T09:35:35;100924.04;;;26.35;35.60
47809;BME280;33573;38.790;-77.084;2022-07-06T09:38:05;100931.96;;;26.35;35.67
47809;BME280;33573;38.790;-77.084;2022-07-06T09:40:35;100933.54;;;26.45;35.63
47809;BME280;33573;38.790;-77.084;2022-07-06T09:43:12;100935.14;;;26.40;35.70
47809;BME280;33573;38.790;-77.084;2022-07-06T09:45:42;100929.91;;;26.74;35.67
47809;BME280;33573;38.790;-77.084;2022-07-06T09:48:12;100932.95;;;26.38;35.71
47809;BME280;33573;38.790;-77.084;2022-07-06T09:50:41;100931.47;;;26.33;35.81
47809;BME280;33573;38.790;-77.084;2022-07-06T09:53:10;100922.47;;;26.30;35.86
47809;BME280;33573;38.790;-77.084;2022-07-06T09:55:38;100916.23;;;26.35;35.86
47809;BME280;33573;38.790;-77.084;2022-07-06T09:58:06;100915.12;;;26.67;35.82
47809;BME280;33573;38.790;-77.084;2022-07-06T10:00:35;100913.87;;;26.28;35.72
47809;BME280;33573;38.790;-77.084;2022-07-06T10:03:03;100911.69;;;26.42;35.81
47809;BME280;33573;38.790;-77.084;2022-07-06T10:05:32;100921.48;;;26.62;35.86
47809;BME280;33573;38.790;-77.084;2022-07-06T10:08:01;100931.12;;;26.46;35.80
47809;BME280;33573;38.790;-77.084;2022-07-06T10:10:29;100938.53;;;26.35;35.90
47809;BME280;33573;38.790;-77.084;2022-07-06T10:12:59;100941.38;;;26.62;35.91
47809;BME280;33573;38.790;-77.084;2022-07-06T10:15:29;100935.59;;;26.24;36.06
47809;BME280;33573;38.790;-77.084;2022-07-06T10:17:58;100933.56;;;26.77;36.01
47809;BME280;33573;38.790;-77.084;2022-07-06T10:20:28;100937.11;;;26.33;36.01
47809;BME280;33573;38.790;-77.084;2022-07-06T10:22:58;100940.61;;;26.61;35.99
47809;BME280;33573;38.790;-77.084;2022-07-06T10:25:27;100936.55;;;26.71;35.94
47809;BME280;33573;38.790;-77.084;2022-07-06T10:27:56;100937.07;;;26.45;35.91
47809;BME280;33573;38.790;-77.084;2022-07-06T10:30:25;100928.42;;;26.73;35.91
47809;BME280;33573;38.790;-77.084;2022-07-06T10:32:56;100923.29;;;26.44;35.92
47809;BME280;33573;38.790;-77.084;2022-07-06T10:35:26;100937.49;;;26.48;35.91
47809;BME280;33573;38.790;-77.084;2022-07-06T10:38:05;100949.31;;;26.47;35.92
47809;BME280;33573;38.790;-77.084;2022-07-06T10:40:34;100950.09;;;26.30;35.85
47809;BME280;33573;38.790;-77.084;2022-07-06T10:43:03;100939.62;;;26.64;35.99
47809;BME280;33573;38.790;-77.084;2022-07-06T10:46:36;100938.09;;;26.35;36.07
47809;BME280;33573;38.790;-77.084;2022-07-06T10:49:15;100949.08;;;26.29;36.19
47809;BME280;33573;38.790;-77.084;2022-07-06T10:51:43;100952.45;;;26.32;36.30
47809;BME280;33573;38.790;-77.084;2022-07-06T10:54:11;100958.23;;;26.64;36.33
47809;BME280;33573;38.790;-77.084;2022-07-06T10:56:41;100966.32;;;26.38;36.33
47809;BME280;33573;38.790;-77.084;2022-07-06T10:59:10;100970.23;;;26.61;36.32
47809;BME280;33573;38.790;-77.084;2022-07-06T11:01:39;100979.61;;;26.59;36.37
47809;BME280;33573;38.790;-77.084;2022-07-06T11:04:08;100974.57;;;26.64;36.33
47809;BME280;33573;38.790;-77.084;2022-07-06T11:06:38;100970.32;;;26.39;36.32
47809;BME280;33573;38.790;-77.084;2022-07-06T11:09:09;100968.15;;;26.56;36.44
47809;BME280;33573;38.790;-77.084;2022-07-06T11:11:41;100967.02;;;26.39;36.39
47809;BME280;33573;38.790;-77.084;2022-07-06T11:14:11;100968.28;;;26.25;36.51
47809;BME280;33573;38.790;-77.084;2022-07-06T11:16:40;100972.50;;;26.21;36.54
47809;BME280;33573;38.790;-77.084;2022-07-06T11:19:27;100976.59;;;26.24;36.57
47809;BME280;33573;38.790;-77.084;2022-07-06T11:21:56;100972.52;;;26.41;36.40
47809;BME280;33573;38.790;-77.084;2022-07-06T11:24:25;100965.18;;;26.60;36.45
47809;BME280;33573;38.790;-77.084;2022-07-06T11:26:55;100967.20;;;26.49;36.56
47809;BME280;33573;38.790;-77.084;2022-07-06T11:29:24;100969.19;;;26.51;36.55
47809;BME280;33573;38.790;-77.084;2022-07-06T11:31:54;100977.89;;;26.31;36.51
47809;BME280;33573;38.790;-77.084;2022-07-06T11:34:24;100976.72;;;26.29;36.53
47809;BME280;33573;38.790;-77.084;2022-07-06T11:36:55;100976.34;;;26.29;36.57
47809;BME280;33573;38.790;-77.084;2022-07-06T11:39:26;100981.66;;;26.36;36.52
47809;BME280;33573;38.790;-77.084;2022-07-06T11:41:55;100979.97;;;26.37;36.52
47809;BME280;33573;38.790;-77.084;2022-07-06T11:44:23;100983.17;;;26.73;36.53
47809;BME280;33573;38.790;-77.084;2022-07-06T11:46:51;100989.37;;;26.28;36.66
47809;BME280;33573;38.790;-77.084;2022-07-06T11:49:19;100995.91;;;26.49;36.75
47809;BME280;33573;38.790;-77.084;2022-07-06T11:51:47;100994.05;;;26.81;36.81
47809;BME280;33573;38.790;-77.084;2022-07-06T11:54:16;101000.07;;;26.54;36.84
47809;BME280;33573;38.790;-77.084;2022-07-06T11:56:49;100995.43;;;26.31;36.87
47809;BME280;33573;38.790;-77.084;2022-07-06T11:59:21;100993.13;;;26.60;36.92
47809;BME280;33573;38.790;-77.084;2022-07-06T12:01:49;100995.45;;;26.39;36.76
47809;BME280;33573;38.790;-77.084;2022-07-06T12:04:17;100987.96;;;26.37;36.82
47809;BME280;33573;38.790;-77.084;2022-07-06T12:06:45;100991.51;;;26.50;36.68
47809;BME280;33573;38.790;-77.084;2022-07-06T12:09:13;100990.35;;;26.46;36.70
47809;BME280;33573;38.790;-77.084;2022-07-06T12:11:45;100987.82;;;26.32;36.86
47809;BME280;33573;38.790;-77.084;2022-07-06T12:14:14;100979.13;;;26.41;36.77
47809;BME280;33573;38.790;-77.084;2022-07-06T12:16:43;100980.48;;;26.61;36.85
47809;BME280;33573;38.790;-77.084;2022-07-06T12:19:10;100975.55;;;26.39;36.79
47809;BME280;33573;38.790;-77.084;2022-07-06T12:21:44;100964.57;;;26.47;36.71
47809;BME280;33573;38.790;-77.084;2022-07-06T12:24:18;100964.95;;;26.78;36.66
47809;BME280;33573;38.790;-77.084;2022-07-06T12:26:46;100968.08;;;26.48;36.71
47809;BME280;33573;38.790;-77.084;2022-07-06T12:29:14;100969.38;;;26.55;36.62
47809;BME280;33573;38.790;-77.084;2022-07-06T12:31:47;100968.52;;;26.54;36.70
47809;BME280;33573;38.790;-77.084;2022-07-06T12:34:16;100972.09;;;26.35;36.59
47809;BME280;33573;38.790;-77.084;2022-07-06T12:36:46;100972.04;;;26.47;36.71
47809;BME280;33573;38.790;-77.084;2022-07-06T12:39:16;100969.81;;;26.44;36.55